createdAt,value
2023-09-25T00:00:36.400Z,99.90
2023-09-25T00:03:05.833Z,99.90
2023-09-25T00:05:34.537Z,99.90
2023-09-25T00:08:02.914Z,99.90
2023-09-25T00:10:32.467Z,99.90
2023-09-25T00:13:01.083Z,99.90
2023-09-25T00:15:30.547Z,99.90
2023-09-25T00:17:59.246Z,99.90
2023-09-25T00:20:27.866Z,99.90
2023-09-25T00:22:56.992Z,99.90
2023-09-25T00:25:25.441Z,99.90
2023-09-25T00:27:53.606Z,99.90
2023-09-25T00:30:21.894Z,99.90
2023-09-25T00:32:52.581Z,99.90
2023-09-25T00:35:21.337Z,99.90
2023-09-25T00:37:49.698Z,99.90
2023-09-25T00:40:19.613Z,99.90
2023-09-25T00:42:49.997Z,99.90
2023-09-25T00:45:18.645Z,99.90
2023-09-25T00:47:46.942Z,99.90
2023-09-25T00:50:16.209Z,99.90
2023-09-25T00:52:45.444Z,99.90
2023-09-25T00:55:15.797Z,99.90
2023-09-25T00:57:45.078Z,99.90
2023-09-25T01:00:14.390Z,99.90
2023-09-25T01:02:42.983Z,99.90
2023-09-25T01:05:11.587Z,99.90
2023-09-25T01:07:43.017Z,99.90
2023-09-25T01:10:15.498Z,99.90
2023-09-25T01:12:44.354Z,99.90
2023-09-25T01:15:14.034Z,99.90
2023-09-25T01:17:42.704Z,99.90
2023-09-25T01:20:14.082Z,99.90
2023-09-25T01:22:45.169Z,99.90
2023-09-25T01:25:13.701Z,99.90
2023-09-25T01:27:43.550Z,99.90
2023-09-25T01:30:13.006Z,99.90
2023-09-25T01:32:43.324Z,99.90
2023-09-25T01:35:15.915Z,99.90
2023-09-25T01:37:45.818Z,99.90
2023-09-25T01:40:15.004Z,99.90
2023-09-25T01:42:42.997Z,99.90
2023-09-25T01:45:12.152Z,99.90
2023-09-25T01:47:41.241Z,99.90
2023-09-25T01:50:11.559Z,99.90
2023-09-25T01:52:42.394Z,99.90
2023-09-25T01:55:11.887Z,99.90
2023-09-25T01:57:39.866Z,99.90
2023-09-25T02:00:11.683Z,99.90
2023-09-25T02:02:39.678Z,99.90
2023-09-25T02:05:08.740Z,99.90
2023-09-25T02:07:36.971Z,99.90
2023-09-25T02:10:05.366Z,99.90
2023-09-25T02:12:34.927Z,99.90
2023-09-25T02:15:05.375Z,99.90
2023-09-25T02:17:33.805Z,99.90
2023-09-25T02:20:13.576Z,99.90
2023-09-25T02:22:41.658Z,99.90
2023-09-25T02:25:10.707Z,99.90
2023-09-25T02:27:40.921Z,99.90
2023-09-25T02:30:10.602Z,99.90
2023-09-25T02:32:38.976Z,99.90
2023-09-25T02:35:08.651Z,99.90
2023-09-25T02:37:38.644Z,99.90
2023-09-25T02:40:08.071Z,99.90
2023-09-25T02:42:36.028Z,99.90
2023-09-25T02:45:06.865Z,99.90
2023-09-25T02:47:34.902Z,99.90
2023-09-25T02:50:03.208Z,99.90
2023-09-25T02:52:31.230Z,99.90
2023-09-25T02:54:59.153Z,99.90
2023-09-25T02:57:27.260Z,99.90
2023-09-25T02:59:55.238Z,99.90
2023-09-25T03:02:26.978Z,99.90
2023-09-25T03:04:55.467Z,99.90
2023-09-25T03:07:23.622Z,99.90
2023-09-25T03:09:51.868Z,99.90
2023-09-25T03:12:20.854Z,99.90
2023-09-25T03:14:48.824Z,99.90
2023-09-25T03:17:16.892Z,99.90
2023-09-25T03:19:46.131Z,99.90
2023-09-25T03:22:14.048Z,99.90
2023-09-25T03:24:42.038Z,99.90
2023-09-25T03:27:10.068Z,99.90
2023-09-25T03:29:38.122Z,99.90
2023-09-25T03:32:06.032Z,99.90
2023-09-25T03:34:34.090Z,99.90
2023-09-25T03:37:03.437Z,99.90
2023-09-25T03:39:31.408Z,99.90
2023-09-25T03:41:59.339Z,99.90
2023-09-25T03:44:27.469Z,99.90
2023-09-25T03:46:55.412Z,99.90
2023-09-25T03:49:23.402Z,99.90
2023-09-25T03:51:51.433Z,99.90
2023-09-25T03:54:20.702Z,99.90
2023-09-25T03:56:49.174Z,99.90
2023-09-25T03:59:17.135Z,99.90
2023-09-25T04:01:45.171Z,99.90
2023-09-25T04:04:13.538Z,99.90
2023-09-25T04:06:41.605Z,99.90
2023-09-25T04:09:10.298Z,99.90
2023-09-25T04:11:39.591Z,99.90
2023-09-25T04:14:08.020Z,99.90
2023-09-25T04:16:36.038Z,99.90
2023-09-25T04:19:05.709Z,99.90
2023-09-25T04:21:34.273Z,99.90
2023-09-25T04:24:03.196Z,99.90
2023-09-25T04:26:31.424Z,99.90
2023-09-25T04:29:00.696Z,99.90
2023-09-25T04:31:31.689Z,99.90
2023-09-25T04:34:01.044Z,99.90
2023-09-25T04:36:30.828Z,99.90
2023-09-25T04:38:59.019Z,99.90
2023-09-25T04:41:27.871Z,99.90
2023-09-25T04:43:55.851Z,99.90
2023-09-25T04:46:25.194Z,99.90
2023-09-25T04:48:53.295Z,99.90
2023-09-25T04:51:22.009Z,99.90
2023-09-25T04:53:50.050Z,99.90
2023-09-25T04:56:22.399Z,99.90
2023-09-25T04:58:51.005Z,99.90
2023-09-25T05:01:19.159Z,99.90
2023-09-25T05:03:49.076Z,99.90
2023-09-25T05:06:17.449Z,99.90
2023-09-25T05:08:45.820Z,99.90
2023-09-25T05:11:13.744Z,99.90
2023-09-25T05:13:41.652Z,99.90
2023-09-25T05:16:09.744Z,99.90
2023-09-25T05:18:38.052Z,99.90
2023-09-25T05:21:07.370Z,99.90
2023-09-25T05:23:35.847Z,99.90
2023-09-25T05:26:03.784Z,99.90
2023-09-25T05:28:31.765Z,99.90
2023-09-25T05:30:59.778Z,99.90
2023-09-25T05:33:27.734Z,99.90
2023-09-25T05:35:56.335Z,99.90
2023-09-25T05:38:25.618Z,99.90
2023-09-25T05:40:53.686Z,99.90
2023-09-25T05:43:21.608Z,99.90
2023-09-25T05:45:49.657Z,99.90
2023-09-25T05:48:17.787Z,99.90
2023-09-25T05:50:45.753Z,99.90
2023-09-25T05:53:15.372Z,99.90
2023-09-25T05:55:44.669Z,99.90
2023-09-25T05:58:12.558Z,99.90
2023-09-25T06:00:45.970Z,99.90
2023-09-25T06:03:14.031Z,99.90
2023-09-25T06:05:43.461Z,99.90
2023-09-25T06:08:11.387Z,99.90
2023-09-25T06:10:41.052Z,99.90
2023-09-25T06:13:10.300Z,99.90
2023-09-25T06:15:38.820Z,99.90
2023-09-25T06:18:10.333Z,99.90
2023-09-25T06:20:39.859Z,99.90
2023-09-25T06:23:07.856Z,99.90
2023-09-25T06:25:36.275Z,99.90
2023-09-25T06:28:04.561Z,99.90
2023-09-25T06:30:34.146Z,99.90
2023-09-25T06:33:03.199Z,99.90
2023-09-25T06:35:31.242Z,99.90
2023-09-25T06:37:59.614Z,99.90
2023-09-25T06:40:27.642Z,99.90
2023-09-25T06:42:55.541Z,99.90
2023-09-25T06:45:23.657Z,99.90
2023-09-25T06:47:53.073Z,99.90
2023-09-25T06:50:21.057Z,99.90
2023-09-25T06:52:48.983Z,99.90
2023-09-25T06:55:17.090Z,99.90
2023-09-25T06:57:45.177Z,99.90
2023-09-25T07:00:15.317Z,99.90
2023-09-25T07:02:43.607Z,99.90
2023-09-25T07:05:13.520Z,99.90
2023-09-25T07:07:41.631Z,99.90
2023-09-25T07:10:11.147Z,99.90
2023-09-25T07:12:39.516Z,99.90
2023-09-25T07:15:08.718Z,99.90
2023-09-25T07:17:36.707Z,99.90
2023-09-25T07:20:06.761Z,99.90
2023-09-25T07:22:36.151Z,99.90
2023-09-25T07:25:04.151Z,99.90
2023-09-25T07:27:32.246Z,99.90
2023-09-25T07:30:00.416Z,99.90
2023-09-25T07:32:29.650Z,99.90
2023-09-25T07:34:58.442Z,99.90
2023-09-25T07:37:26.407Z,99.90
2023-09-25T07:39:55.744Z,99.90
2023-09-25T07:42:24.283Z,99.90
2023-09-25T07:44:52.342Z,99.90
2023-09-25T07:47:20.454Z,99.90
2023-09-25T07:49:48.767Z,99.90
2023-09-25T07:52:18.047Z,99.90
2023-09-25T07:54:46.619Z,99.90
2023-09-25T07:57:17.642Z,99.90
2023-09-25T07:59:45.736Z,99.90
2023-09-25T08:02:17.831Z,99.90
2023-09-25T08:04:46.065Z,99.90
2023-09-25T08:07:14.324Z,99.90
2023-09-25T08:09:42.816Z,99.90
2023-09-25T08:12:10.897Z,99.90
2023-09-25T08:14:40.357Z,99.90
2023-09-25T08:17:09.805Z,99.90
2023-09-25T08:19:38.092Z,99.90
2023-09-25T08:22:06.349Z,99.90
2023-09-25T08:24:34.488Z,99.90
2023-09-25T08:27:02.447Z,99.90
2023-09-25T08:29:30.708Z,99.90
2023-09-25T08:32:00.140Z,99.90
2023-09-25T08:34:28.060Z,99.90
2023-09-25T08:36:56.097Z,99.90
2023-09-25T08:39:24.541Z,99.90
2023-09-25T08:41:53.029Z,99.90
2023-09-25T08:44:21.500Z,99.90
2023-09-25T08:46:50.429Z,99.90
2023-09-25T08:49:19.967Z,99.90
2023-09-25T08:51:48.401Z,99.90
2023-09-25T08:54:16.432Z,99.90
2023-09-25T08:56:46.198Z,99.90
2023-09-25T08:59:14.275Z,99.90
2023-09-25T09:01:42.409Z,99.90
2023-09-25T09:04:12.062Z,99.90
2023-09-25T09:06:42.048Z,99.90
2023-09-25T09:09:10.899Z,99.90
2023-09-25T09:11:40.445Z,99.90
2023-09-25T09:14:08.480Z,99.90
2023-09-25T09:16:36.509Z,99.90
2023-09-25T09:19:09.153Z,99.90
2023-09-25T09:21:37.354Z,99.90
2023-09-25T09:24:09.457Z,99.90
2023-09-25T09:26:38.860Z,99.90
2023-09-25T09:29:14.495Z,99.90
2023-09-25T09:31:43.447Z,99.90
2023-09-25T09:34:11.634Z,99.90
2023-09-25T09:36:51.567Z,99.90
2023-09-25T09:39:22.293Z,99.90
2023-09-25T09:41:52.006Z,99.90
2023-09-25T09:44:20.350Z,99.90
2023-09-25T09:46:51.547Z,99.90
2023-09-25T09:49:21.953Z,99.90
2023-09-25T09:51:52.071Z,99.90
2023-09-25T09:54:22.815Z,99.90
2023-09-25T09:56:51.024Z,99.90
2023-09-25T09:59:19.774Z,99.90
2023-09-25T10:01:50.254Z,99.90
2023-09-25T10:04:19.133Z,99.90
2023-09-25T10:06:53.424Z,99.90
2023-09-25T10:09:22.888Z,99.90
2023-09-25T10:11:55.504Z,99.90
2023-09-25T10:14:24.259Z,99.90
2023-09-25T10:16:58.894Z,99.90
2023-09-25T10:19:50.478Z,99.90
2023-09-25T10:22:21.518Z,99.90
2023-09-25T10:25:03.844Z,99.90
2023-09-25T10:27:33.128Z,99.90
2023-09-25T10:30:08.835Z,99.90
2023-09-25T10:32:40.300Z,99.90
2023-09-25T10:35:43.636Z,99.90
2023-09-25T10:38:30.961Z,99.90
2023-09-25T10:41:04.783Z,99.90
2023-09-25T10:43:33.848Z,99.90
2023-09-25T10:46:02.866Z,99.90
2023-09-25T10:48:32.802Z,99.90
2023-09-25T10:51:01.489Z,99.90
2023-09-25T10:53:30.216Z,99.90
2023-09-25T10:55:58.588Z,99.90
2023-09-25T10:58:29.632Z,99.90
2023-09-25T11:00:58.437Z,99.90
2023-09-25T11:03:27.132Z,99.90
2023-09-25T11:05:55.765Z,99.90
2023-09-25T11:08:23.869Z,99.90
2023-09-25T11:10:52.127Z,99.90
2023-09-25T11:13:20.598Z,99.90
2023-09-25T11:15:50.180Z,99.90
2023-09-25T11:18:22.101Z,99.90
2023-09-25T11:20:52.833Z,99.90
2023-09-25T11:23:22.466Z,99.90
2023-09-25T11:25:53.200Z,99.90
2023-09-25T11:28:22.647Z,99.90
2023-09-25T11:30:53.508Z,99.90
2023-09-25T11:33:24.160Z,99.90
2023-09-25T11:35:56.947Z,99.90
2023-09-25T11:38:26.761Z,99.90
2023-09-25T11:40:55.167Z,99.90
2023-09-25T11:43:25.726Z,99.90
2023-09-25T11:45:57.576Z,99.90
2023-09-25T11:48:25.661Z,99.90
2023-09-25T11:50:53.752Z,99.90
2023-09-25T11:53:22.543Z,99.90
2023-09-25T11:55:51.063Z,99.90
2023-09-25T11:58:19.836Z,99.90
2023-09-25T12:00:47.997Z,99.90
2023-09-25T12:03:17.677Z,99.90
2023-09-25T12:05:46.126Z,99.90
2023-09-25T12:08:17.625Z,99.90
2023-09-25T12:10:46.253Z,99.90
2023-09-25T12:13:16.834Z,99.90
2023-09-25T12:15:45.829Z,99.90
2023-09-25T12:18:14.859Z,99.90
2023-09-25T12:20:44.825Z,99.90
2023-09-25T12:23:13.579Z,99.90
2023-09-25T12:25:41.730Z,99.20
2023-09-25T12:28:09.694Z,99.90
2023-09-25T12:30:38.227Z,99.50
2023-09-25T12:33:08.249Z,98.60
2023-09-25T12:35:37.909Z,98.70
2023-09-25T12:38:07.614Z,98.30
2023-09-25T12:40:35.563Z,99.90
2023-09-25T12:43:04.005Z,99.10
2023-09-25T12:45:32.677Z,98.10
2023-09-25T12:48:00.803Z,97.90
2023-09-25T12:50:30.219Z,98.30
2023-09-25T12:52:59.490Z,98.70
2023-09-25T12:55:32.775Z,98.70
2023-09-25T12:58:01.349Z,97.60
2023-09-25T13:00:29.630Z,98.70
2023-09-25T13:02:57.918Z,98.40
2023-09-25T13:05:26.096Z,97.60
2023-09-25T13:07:54.122Z,98.00
2023-09-25T13:10:22.166Z,98.00
2023-09-25T13:12:51.702Z,98.90
2023-09-25T13:15:21.842Z,99.00
2023-09-25T13:17:50.997Z,99.90
2023-09-25T13:20:19.238Z,99.10
2023-09-25T13:22:47.326Z,99.60
2023-09-25T13:25:15.385Z,98.50
2023-09-25T13:27:49.950Z,99.40
2023-09-25T13:30:21.436Z,97.30
2023-09-25T13:32:50.557Z,97.60
2023-09-25T13:35:19.535Z,97.50
2023-09-25T13:37:47.534Z,97.00
2023-09-25T13:40:18.006Z,97.10
2023-09-25T13:42:47.040Z,98.40
2023-09-25T13:45:15.926Z,98.20
2023-09-25T13:47:45.852Z,99.40
2023-09-25T13:50:15.405Z,98.60
2023-09-25T13:52:43.930Z,98.00
2023-09-25T13:55:14.895Z,98.30
2023-09-25T13:57:43.362Z,98.30
2023-09-25T14:00:12.995Z,99.30
2023-09-25T14:02:42.274Z,97.80
2023-09-25T14:05:13.481Z,98.10
2023-09-25T14:07:42.210Z,98.10
2023-09-25T14:10:12.406Z,98.20
2023-09-25T14:12:40.567Z,98.80
2023-09-25T14:15:11.440Z,98.30
2023-09-25T14:17:39.567Z,97.90
2023-09-25T14:20:09.637Z,97.80
2023-09-25T14:22:39.978Z,97.40
2023-09-25T14:25:09.437Z,98.30
2023-09-25T14:27:37.664Z,98.70
2023-09-25T14:30:06.924Z,97.40
2023-09-25T14:32:34.865Z,98.30
2023-09-25T14:35:02.991Z,98.20
2023-09-25T14:37:33.383Z,98.60
2023-09-25T14:40:02.969Z,99.20
2023-09-25T14:42:33.483Z,99.00
2023-09-25T14:45:02.054Z,99.10
2023-09-25T14:47:29.981Z,99.80
2023-09-25T14:49:58.582Z,99.20
2023-09-25T14:52:26.492Z,98.80
2023-09-25T14:54:54.504Z,98.30
2023-09-25T14:57:24.282Z,98.50
2023-09-25T14:59:52.353Z,98.70
2023-09-25T15:02:20.354Z,98.70
2023-09-25T15:04:49.109Z,99.40
2023-09-25T15:07:17.095Z,99.40
2023-09-25T15:09:45.040Z,99.20
2023-09-25T15:12:13.674Z,99.50
2023-09-25T15:14:42.990Z,99.50
2023-09-25T15:17:10.941Z,99.20
2023-09-25T15:19:38.988Z,99.50
2023-09-25T15:22:07.256Z,99.60
2023-09-25T15:24:35.379Z,99.00
2023-09-25T15:27:03.345Z,99.20
2023-09-25T15:29:31.427Z,98.90
2023-09-25T15:32:01.275Z,99.40
2023-09-25T15:34:30.901Z,99.30
2023-09-25T15:36:59.904Z,99.80
2023-09-25T15:39:27.935Z,99.90
2023-09-25T15:41:56.910Z,99.80
2023-09-25T15:44:25.354Z,99.90
2023-09-25T15:46:53.415Z,99.90
2023-09-25T15:49:22.839Z,99.90
2023-09-25T15:51:50.806Z,99.90
2023-09-25T15:54:18.809Z,99.90
2023-09-25T15:56:46.992Z,99.90
2023-09-25T15:59:14.965Z,99.90
2023-09-25T16:01:43.119Z,99.90
2023-09-25T16:04:11.629Z,99.90
2023-09-25T16:06:41.264Z,99.90
2023-09-25T16:09:10.278Z,99.90
2023-09-25T16:11:38.265Z,99.90
2023-09-25T16:14:06.561Z,99.90
2023-09-25T16:16:34.753Z,99.90
2023-09-25T16:19:02.819Z,99.90
2023-09-25T16:21:30.948Z,99.90
2023-09-25T16:24:00.311Z,99.90
2023-09-25T16:26:28.400Z,99.90
2023-09-25T16:28:56.328Z,99.90
2023-09-25T16:31:24.356Z,99.90
2023-09-25T16:33:52.545Z,99.90
2023-09-25T16:36:20.858Z,99.90
2023-09-25T16:38:48.764Z,99.90
2023-09-25T16:41:17.995Z,99.90
2023-09-25T16:43:45.837Z,99.90
2023-09-25T16:46:13.861Z,99.90
2023-09-25T16:48:42.106Z,99.90
2023-09-25T16:51:10.074Z,99.90
2023-09-25T16:53:37.975Z,99.90
2023-09-25T16:56:06.078Z,99.90
2023-09-25T16:58:35.780Z,99.90
2023-09-25T17:01:04.614Z,99.90
2023-09-25T17:03:32.892Z,99.90
2023-09-25T17:06:00.957Z,99.90
2023-09-25T17:08:29.273Z,99.90
2023-09-25T17:10:57.233Z,99.90
2023-09-25T17:13:25.654Z,99.90
2023-09-25T17:15:55.228Z,99.90
2023-09-25T17:18:23.207Z,99.90
2023-09-25T17:20:51.115Z,99.90
2023-09-25T17:23:19.276Z,99.90
2023-09-25T17:25:49.474Z,99.90
2023-09-25T17:28:17.620Z,99.90
2023-09-25T17:30:58.653Z,99.90
2023-09-25T17:33:32.712Z,99.90
2023-09-25T17:36:00.906Z,99.90
2023-09-25T17:38:31.987Z,99.90
2023-09-25T17:41:00.105Z,99.90
2023-09-25T17:43:29.308Z,99.90
2023-09-25T17:45:58.940Z,99.90
2023-09-25T17:48:30.171Z,99.90
2023-09-25T17:51:01.118Z,99.90
2023-09-25T17:53:29.218Z,99.90
2023-09-25T17:55:58.094Z,99.90
2023-09-25T17:58:30.179Z,99.90
2023-09-25T18:00:59.959Z,99.90
2023-09-25T18:03:28.811Z,99.90
2023-09-25T18:05:56.982Z,99.90
2023-09-25T18:08:26.585Z,99.90
2023-09-25T18:10:54.722Z,99.90
2023-09-25T18:13:22.785Z,99.90
2023-09-25T18:15:51.127Z,99.90
2023-09-25T18:18:19.340Z,99.90
2023-09-25T18:20:47.451Z,99.90
2023-09-25T18:23:15.349Z,99.90
2023-09-25T18:25:45.136Z,99.90
2023-09-25T18:28:13.288Z,99.90
2023-09-25T18:30:41.276Z,99.90
2023-09-25T18:33:11.321Z,99.90
2023-09-25T18:35:40.427Z,99.90
2023-09-25T18:38:08.894Z,99.90
2023-09-25T18:40:37.184Z,99.90
2023-09-25T18:43:07.128Z,99.90
2023-09-25T18:45:35.284Z,99.90
2023-09-25T18:48:03.512Z,99.90
2023-09-25T18:50:31.561Z,99.90
2023-09-25T18:52:59.520Z,99.90
2023-09-25T18:55:27.614Z,99.90
2023-09-25T18:57:55.740Z,99.90
2023-09-25T19:00:26.491Z,99.90
2023-09-25T19:02:54.620Z,99.90
2023-09-25T19:05:22.692Z,99.90
2023-09-25T19:07:50.686Z,99.90
2023-09-25T19:10:18.769Z,99.90
2023-09-25T19:12:47.193Z,99.90
2023-09-25T19:15:15.209Z,99.90
2023-09-25T19:17:44.565Z,99.90
2023-09-25T19:20:12.540Z,99.90
2023-09-25T19:22:40.448Z,99.90
2023-09-25T19:25:09.174Z,99.90
2023-09-25T19:27:37.109Z,99.90
2023-09-25T19:30:06.294Z,99.90
2023-09-25T19:32:34.291Z,99.90
2023-09-25T19:35:04.023Z,99.90
2023-09-25T19:37:31.968Z,99.90
2023-09-25T19:40:00.073Z,99.90
2023-09-25T19:42:28.464Z,99.90
2023-09-25T19:44:57.320Z,99.90
2023-09-25T19:47:25.350Z,99.90
2023-09-25T19:49:53.306Z,99.90
2023-09-25T19:52:22.680Z,99.90
2023-09-25T19:54:51.565Z,99.90
2023-09-25T19:57:22.366Z,99.90
2023-09-25T19:59:50.361Z,99.90
2023-09-25T20:02:18.476Z,99.90
2023-09-25T20:04:48.355Z,99.90
2023-09-25T20:07:16.465Z,99.90
2023-09-25T20:09:45.918Z,99.90
2023-09-25T20:12:13.801Z,99.90
2023-09-25T20:14:41.838Z,99.90
2023-09-25T20:17:09.798Z,99.90
2023-09-25T20:19:37.821Z,99.90
2023-09-25T20:22:05.828Z,99.90
2023-09-25T20:24:33.871Z,99.90
2023-09-25T20:27:03.213Z,99.90
2023-09-25T20:29:31.140Z,99.90
2023-09-25T20:31:59.046Z,99.90
2023-09-25T20:34:27.023Z,99.90
2023-09-25T20:36:54.954Z,99.90
2023-09-25T20:39:23.261Z,99.90
2023-09-25T20:41:51.265Z,99.90
2023-09-25T20:44:20.577Z,99.90
2023-09-25T20:46:50.827Z,99.90
2023-09-25T20:49:18.977Z,99.90
2023-09-25T20:51:47.553Z,99.90
2023-09-25T20:54:15.516Z,99.90
2023-09-25T20:56:43.847Z,99.90
2023-09-25T20:59:11.763Z,99.90
2023-09-25T21:01:41.215Z,99.90
2023-09-25T21:04:09.233Z,99.90
2023-09-25T21:06:37.317Z,99.90
2023-09-25T21:09:05.466Z,99.90
2023-09-25T21:11:33.400Z,99.90
2023-09-25T21:14:01.387Z,99.90
2023-09-25T21:16:29.464Z,99.90
2023-09-25T21:18:58.986Z,99.90
2023-09-25T21:21:26.969Z,99.90
2023-09-25T21:23:54.922Z,99.90
2023-09-25T21:26:22.866Z,99.90
2023-09-25T21:28:50.793Z,99.90
2023-09-25T21:31:20.514Z,99.90
2023-09-25T21:33:52.491Z,99.90
2023-09-25T21:36:22.433Z,99.90
2023-09-25T21:38:50.748Z,99.90
2023-09-25T21:41:18.793Z,99.90
2023-09-25T21:43:46.669Z,99.90
2023-09-25T21:46:14.723Z,99.90
2023-09-25T21:48:42.726Z,99.90
2023-09-25T21:51:10.707Z,99.90
2023-09-25T21:53:40.117Z,99.90
2023-09-25T21:56:08.111Z,99.90
2023-09-25T21:58:36.083Z,99.90
2023-09-25T22:01:04.106Z,99.90
2023-09-25T22:03:32.198Z,99.90
2023-09-25T22:06:00.790Z,99.90
2023-09-25T22:08:28.838Z,99.90
2023-09-25T22:10:58.227Z,99.90
2023-09-25T22:13:26.206Z,99.90
2023-09-25T22:15:54.805Z,99.90
2023-09-25T22:18:23.242Z,99.90
2023-09-25T22:20:51.281Z,99.90
2023-09-25T22:23:19.200Z,99.90
2023-09-25T22:25:47.205Z,99.90
2023-09-25T22:28:16.604Z,99.90
2023-09-25T22:30:45.129Z,99.90
2023-09-25T22:33:13.306Z,99.90
2023-09-25T22:35:41.845Z,99.90
2023-09-25T22:38:11.561Z,99.90
2023-09-25T22:40:41.063Z,99.90
2023-09-25T22:43:09.973Z,99.90
2023-09-25T22:45:39.478Z,99.90
2023-09-25T22:48:08.113Z,99.90
2023-09-25T22:50:36.253Z,99.90
2023-09-25T22:53:04.265Z,99.90
2023-09-25T22:55:33.484Z,99.90
2023-09-25T22:58:01.588Z,99.90
2023-09-25T23:00:29.666Z,99.90
2023-09-25T23:02:59.151Z,99.90
2023-09-25T23:05:27.579Z,99.90
2023-09-25T23:07:56.293Z,99.90
2023-09-25T23:10:24.625Z,99.90
2023-09-25T23:12:52.787Z,99.90
2023-09-25T23:15:21.034Z,99.90
2023-09-25T23:17:48.966Z,99.90
2023-09-25T23:20:22.143Z,99.90
2023-09-25T23:22:52.275Z,99.90
2023-09-25T23:25:23.113Z,99.90
2023-09-25T23:27:52.129Z,99.90
2023-09-25T23:30:21.097Z,99.90
2023-09-25T23:32:50.650Z,99.90
2023-09-25T23:35:20.643Z,99.90
2023-09-25T23:37:49.245Z,99.90
2023-09-25T23:40:20.649Z,99.90
2023-09-25T23:42:50.106Z,99.90
2023-09-25T23:45:18.690Z,99.90
2023-09-25T23:47:48.494Z,99.90
2023-09-25T23:50:17.371Z,99.90
2023-09-25T23:52:48.579Z,99.90
2023-09-25T23:55:17.141Z,99.90
2023-09-25T23:57:45.321Z,99.90
